sensor_id;sensor_type;location;lat;lon;timestamp;temperature;humidity
57088;DHT22;42965;52.846;6.614;2023-09-18T00:01:44;17.10;99.90
57088;DHT22;42965;52.846;6.614;2023-09-18T00:04:10;17.10;99.90
57088;DHT22;42965;52.846;6.614;2023-09-18T00:06:36;17.10;99.90
57088;DHT22;42965;52.846;6.614;2023-09-18T00:09:02;17.10;99.90
57088;DHT22;42965;52.846;6.614;2023-09-18T00:11:28;17.10;99.90
57088;DHT22;42965;52.846;6.614;2023-09-18T00:13:59;17.00;99.90
57088;DHT22;42965;52.846;6.614;2023-09-18T00:16:25;17.00;99.90
57088;DHT22;42965;52.846;6.614;2023-09-18T00:18:53;17.00;99.90
57088;DHT22;42965;52.846;6.614;2023-09-18T00:21:19;17.00;99.90
57088;DHT22;42965;52.846;6.614;2023-09-18T00:23:46;17.10;99.90
57088;DHT22;42965;52.846;6.614;2023-09-18T00:26:12;17.00;99.90
57088;DHT22;42965;52.846;6.614;2023-09-18T00:28:41;17.00;99.90
57088;DHT22;42965;52.846;6.614;2023-09-18T00:31:07;17.00;99.90
57088;DHT22;42965;52.846;6.614;2023-09-18T00:33:33;17.00;99.90
57088;DHT22;42965;52.846;6.614;2023-09-18T00:36:00;17.00;99.90
57088;DHT22;42965;52.846;6.614;2023-09-18T00:38:26;17.00;99.90
57088;DHT22;42965;52.846;6.614;2023-09-18T00:41:12;17.00;99.90
57088;DHT22;42965;52.846;6.614;2023-09-18T00:43:38;17.00;99.90
57088;DHT22;42965;52.846;6.614;2023-09-18T00:46:06;17.00;99.90
57088;DHT22;42965;52.846;6.614;2023-09-18T00:48:32;17.00;99.90
57088;DHT22;42965;52.846;6.614;2023-09-18T00:50:59;17.00;99.90
57088;DHT22;42965;52.846;6.614;2023-09-18T00:53:26;17.00;99.90
57088;DHT22;42965;52.846;6.614;2023-09-18T00:56:12;17.00;99.90
57088;DHT22;42965;52.846;6.614;2023-09-18T00:58:39;17.00;99.90
57088;DHT22;42965;52.846;6.614;2023-09-18T01:01:05;17.00;99.90
57088;DHT22;42965;52.846;6.614;2023-09-18T01:03:31;17.00;99.90
57088;DHT22;42965;52.846;6.614;2023-09-18T01:05:58;16.90;99.90
57088;DHT22;42965;52.846;6.614;2023-09-18T01:08:28;16.90;99.90
57088;DHT22;42965;52.846;6.614;2023-09-18T01:14:01;17.00;99.90
57088;DHT22;42965;52.846;6.614;2023-09-18T01:16:39;17.00;99.90
57088;DHT22;42965;52.846;6.614;2023-09-18T01:19:05;17.00;99.90
57088;DHT22;42965;52.846;6.614;2023-09-18T01:21:32;17.10;99.90
57088;DHT22;42965;52.846;6.614;2023-09-18T01:23:58;17.20;99.90
57088;DHT22;42965;52.846;6.614;2023-09-18T01:26:27;17.20;99.90
57088;DHT22;42965;52.846;6.614;2023-09-18T01:28:53;17.30;99.90
57088;DHT22;42965;52.846;6.614;2023-09-18T01:31:20;17.30;99.90
57088;DHT22;42965;52.846;6.614;2023-09-18T01:33:47;17.30;99.90
57088;DHT22;42965;52.846;6.614;2023-09-18T01:36:15;17.30;99.90
57088;DHT22;42965;52.846;6.614;2023-09-18T01:38:43;17.30;99.90
57088;DHT22;42965;52.846;6.614;2023-09-18T01:41:10;17.30;99.90
57088;DHT22;42965;52.846;6.614;2023-09-18T01:43:37;17.40;99.90
57088;DHT22;42965;52.846;6.614;2023-09-18T01:46:04;17.40;99.90
57088;DHT22;42965;52.846;6.614;2023-09-18T01:48:30;17.40;99.90
57088;DHT22;42965;52.846;6.614;2023-09-18T01:50:58;17.50;99.90
57088;DHT22;42965;52.846;6.614;2023-09-18T01:53:25;17.40;99.90
57088;DHT22;42965;52.846;6.614;2023-09-18T01:55:52;17.50;99.90
57088;DHT22;42965;52.846;6.614;2023-09-18T01:58:18;17.50;99.90
57088;DHT22;42965;52.846;6.614;2023-09-18T02:00:45;17.50;99.90
57088;DHT22;42965;52.846;6.614;2023-09-18T02:03:11;17.50;99.90
57088;DHT22;42965;52.846;6.614;2023-09-18T02:05:38;17.50;99.90
57088;DHT22;42965;52.846;6.614;2023-09-18T02:08:05;17.50;99.90
57088;DHT22;42965;52.846;6.614;2023-09-18T02:10:32;17.50;99.90
57088;DHT22;42965;52.846;6.614;2023-09-18T02:12:59;17.50;99.90
57088;DHT22;42965;52.846;6.614;2023-09-18T02:15:27;17.60;99.90
57088;DHT22;42965;52.846;6.614;2023-09-18T02:17:56;17.60;99.90
57088;DHT22;42965;52.846;6.614;2023-09-18T02:20:23;17.60;99.90
57088;DHT22;42965;52.846;6.614;2023-09-18T02:22:50;17.60;99.90
57088;DHT22;42965;52.846;6.614;2023-09-18T02:25:17;17.60;99.90
57088;DHT22;42965;52.846;6.614;2023-09-18T02:27:43;17.60;99.90
57088;DHT22;42965;52.846;6.614;2023-09-18T02:30:11;17.60;99.90
57088;DHT22;42965;52.846;6.614;2023-09-18T02:32:58;17.60;99.90
57088;DHT22;42965;52.846;6.614;2023-09-18T02:35:25;17.60;99.90
57088;DHT22;42965;52.846;6.614;2023-09-18T02:37:52;17.60;99.90
57088;DHT22;42965;52.846;6.614;2023-09-18T02:40:19;17.60;99.90
57088;DHT22;42965;52.846;6.614;2023-09-18T02:42:45;17.70;99.90
57088;DHT22;42965;52.846;6.614;2023-09-18T02:45:11;17.70;99.90
57088;DHT22;42965;52.846;6.614;2023-09-18T02:47:37;17.70;99.90
57088;DHT22;42965;52.846;6.614;2023-09-18T02:50:07;17.70;99.90
57088;DHT22;42965;52.846;6.614;2023-09-18T02:52:33;17.70;99.90
57088;DHT22;42965;52.846;6.614;2023-09-18T02:55:00;17.70;99.90
57088;DHT22;42965;52.846;6.614;2023-09-18T02:57:26;17.70;99.90
57088;DHT22;42965;52.846;6.614;2023-09-18T02:59:52;17.70;99.90
57088;DHT22;42965;52.846;6.614;2023-09-18T03:02:19;17.70;99.90
57088;DHT22;42965;52.846;6.614;2023-09-18T03:04:45;17.70;99.90
57088;DHT22;42965;52.846;6.614;2023-09-18T03:07:14;17.80;99.90
57088;DHT22;42965;52.846;6.614;2023-09-18T03:09:42;17.80;99.90
57088;DHT22;42965;52.846;6.614;2023-09-18T03:12:09;17.80;99.90
57088;DHT22;42965;52.846;6.614;2023-09-18T03:14:35;17.80;99.90
57088;DHT22;42965;52.846;6.614;2023-09-18T03:17:02;17.80;99.90
57088;DHT22;42965;52.846;6.614;2023-09-18T03:19:28;17.80;99.90
57088;DHT22;42965;52.846;6.614;2023-09-18T03:21:56;17.90;99.90
57088;DHT22;42965;52.846;6.614;2023-09-18T03:24:23;17.80;99.90
57088;DHT22;42965;52.846;6.614;2023-09-18T03:26:49;17.90;99.90
57088;DHT22;42965;52.846;6.614;2023-09-18T03:29:15;17.90;99.90
57088;DHT22;42965;52.846;6.614;2023-09-18T03:31:42;17.90;99.90
57088;DHT22;42965;52.846;6.614;2023-09-18T03:34:08;17.90;99.90
57088;DHT22;42965;52.846;6.614;2023-09-18T03:36:34;18.00;99.90
57088;DHT22;42965;52.846;6.614;2023-09-18T03:39:05;18.00;99.90
57088;DHT22;42965;52.846;6.614;2023-09-18T03:41:31;18.10;99.90
57088;DHT22;42965;52.846;6.614;2023-09-18T03:44:00;18.10;99.90
57088;DHT22;42965;52.846;6.614;2023-09-18T03:46:26;18.10;99.90
57088;DHT22;42965;52.846;6.614;2023-09-18T03:49:13;18.10;99.90
57088;DHT22;42965;52.846;6.614;2023-09-18T03:51:39;18.10;99.90
57088;DHT22;42965;52.846;6.614;2023-09-18T03:54:25;18.20;99.90
57088;DHT22;42965;52.846;6.614;2023-09-18T03:56:52;18.20;99.90
57088;DHT22;42965;52.846;6.614;2023-09-18T03:59:18;18.20;99.90
57088;DHT22;42965;52.846;6.614;2023-09-18T04:01:44;18.20;99.90
57088;DHT22;42965;52.846;6.614;2023-09-18T04:04:11;18.20;99.90
57088;DHT22;42965;52.846;6.614;2023-09-18T04:06:41;18.20;99.90
57088;DHT22;42965;52.846;6.614;2023-09-18T04:09:09;18.20;99.90
57088;DHT22;42965;52.846;6.614;2023-09-18T04:11:35;18.10;99.90
57088;DHT22;42965;52.846;6.614;2023-09-18T04:14:02;18.10;99.90
57088;DHT22;42965;52.846;6.614;2023-09-18T04:16:31;18.10;99.90
57088;DHT22;42965;52.846;6.614;2023-09-18T04:19:01;18.10;99.90
57088;DHT22;42965;52.846;6.614;2023-09-18T04:21:28;18.10;99.90
57088;DHT22;42965;52.846;6.614;2023-09-18T04:23:57;18.10;99.90
57088;DHT22;42965;52.846;6.614;2023-09-18T04:26:27;18.10;99.90
57088;DHT22;42965;52.846;6.614;2023-09-18T04:28:57;18.10;99.90
57088;DHT22;42965;52.846;6.614;2023-09-18T04:31:28;18.10;99.90
57088;DHT22;42965;52.846;6.614;2023-09-18T04:33:57;18.10;99.90
57088;DHT22;42965;52.846;6.614;2023-09-18T04:36:24;18.20;99.90
57088;DHT22;42965;52.846;6.614;2023-09-18T04:38:51;18.20;99.90
57088;DHT22;42965;52.846;6.614;2023-09-18T04:41:17;18.20;99.90
57088;DHT22;42965;52.846;6.614;2023-09-18T04:43:43;18.20;99.90
57088;DHT22;42965;52.846;6.614;2023-09-18T04:46:10;18.20;99.90
57088;DHT22;42965;52.846;6.614;2023-09-18T04:48:37;18.20;99.90
57088;DHT22;42965;52.846;6.614;2023-09-18T04:51:24;18.30;99.90
57088;DHT22;42965;52.846;6.614;2023-09-18T04:53:51;18.30;99.90
57088;DHT22;42965;52.846;6.614;2023-09-18T04:56:18;18.30;99.90
57088;DHT22;42965;52.846;6.614;2023-09-18T04:58:45;18.30;99.90
57088;DHT22;42965;52.846;6.614;2023-09-18T05:01:11;18.30;99.90
57088;DHT22;42965;52.846;6.614;2023-09-18T05:03:59;18.40;99.90
57088;DHT22;42965;52.846;6.614;2023-09-18T05:06:26;18.40;99.90
57088;DHT22;42965;52.846;6.614;2023-09-18T05:08:52;18.40;99.90
57088;DHT22;42965;52.846;6.614;2023-09-18T05:11:19;18.40;99.90
57088;DHT22;42965;52.846;6.614;2023-09-18T05:13:45;18.30;99.90
57088;DHT22;42965;52.846;6.614;2023-09-18T05:16:12;18.40;99.90
57088;DHT22;42965;52.846;6.614;2023-09-18T05:18:39;18.40;99.90
57088;DHT22;42965;52.846;6.614;2023-09-18T05:21:09;18.50;99.90
57088;DHT22;42965;52.846;6.614;2023-09-18T05:23:36;18.50;99.90
57088;DHT22;42965;52.846;6.614;2023-09-18T05:26:02;18.50;99.90
57088;DHT22;42965;52.846;6.614;2023-09-18T05:28:30;18.50;99.90
57088;DHT22;42965;52.846;6.614;2023-09-18T05:30:56;18.50;99.90
57088;DHT22;42965;52.846;6.614;2023-09-18T05:33:22;18.40;99.90
57088;DHT22;42965;52.846;6.614;2023-09-18T05:35:49;18.40;99.90
57088;DHT22;42965;52.846;6.614;2023-09-18T05:38:35;18.40;99.90
57088;DHT22;42965;52.846;6.614;2023-09-18T05:41:01;18.40;99.90
57088;DHT22;42965;52.846;6.614;2023-09-18T05:43:28;18.30;99.90
57088;DHT22;42965;52.846;6.614;2023-09-18T05:45:54;18.30;99.90
57088;DHT22;42965;52.846;6.614;2023-09-18T05:48:40;18.30;99.90
57088;DHT22;42965;52.846;6.614;2023-09-18T05:51:07;18.30;99.90
57088;DHT22;42965;52.846;6.614;2023-09-18T05:53:33;18.30;99.90
57088;DHT22;42965;52.846;6.614;2023-09-18T05:56:21;18.30;99.90
57088;DHT22;42965;52.846;6.614;2023-09-18T05:58:47;18.30;99.90
57088;DHT22;42965;52.846;6.614;2023-09-18T06:01:13;18.30;99.90
57088;DHT22;42965;52.846;6.614;2023-09-18T06:03:39;18.30;99.90
57088;DHT22;42965;52.846;6.614;2023-09-18T06:06:05;18.30;99.90
57088;DHT22;42965;52.846;6.614;2023-09-18T06:08:32;18.30;99.90
57088;DHT22;42965;52.846;6.614;2023-09-18T06:10:59;18.30;99.90
57088;DHT22;42965;52.846;6.614;2023-09-18T06:13:25;18.40;99.90
57088;DHT22;42965;52.846;6.614;2023-09-18T06:15:53;18.30;99.90
57088;DHT22;42965;52.846;6.614;2023-09-18T06:18:21;18.40;99.90
57088;DHT22;42965;52.846;6.614;2023-09-18T06:20:48;18.40;99.90
57088;DHT22;42965;52.846;6.614;2023-09-18T06:23:14;18.40;99.90
57088;DHT22;42965;52.846;6.614;2023-09-18T06:25:41;18.40;99.90
57088;DHT22;42965;52.846;6.614;2023-09-18T06:28:07;18.40;99.90
57088;DHT22;42965;52.846;6.614;2023-09-18T06:30:34;18.50;99.90
57088;DHT22;42965;52.846;6.614;2023-09-18T06:33:02;18.50;99.90
57088;DHT22;42965;52.846;6.614;2023-09-18T06:35:30;18.50;99.90
57088;DHT22;42965;52.846;6.614;2023-09-18T06:37:56;18.60;99.90
57088;DHT22;42965;52.846;6.614;2023-09-18T06:40:25;18.60;99.90
57088;DHT22;42965;52.846;6.614;2023-09-18T06:42:51;18.60;99.90
57088;DHT22;42965;52.846;6.614;2023-09-18T06:45:20;18.60;99.90
57088;DHT22;42965;52.846;6.614;2023-09-18T06:47:47;18.60;99.90
57088;DHT22;42965;52.846;6.614;2023-09-18T06:50:14;18.40;99.90
57088;DHT22;42965;52.846;6.614;2023-09-18T06:52:40;18.20;99.90
57088;DHT22;42965;52.846;6.614;2023-09-18T06:55:07;18.10;99.90
57088;DHT22;42965;52.846;6.614;2023-09-18T06:57:33;18.10;99.90
57088;DHT22;42965;52.846;6.614;2023-09-18T07:00:00;18.10;99.90
57088;DHT22;42965;52.846;6.614;2023-09-18T07:02:26;18.10;99.90
57088;DHT22;42965;52.846;6.614;2023-09-18T07:04:53;18.10;99.90
57088;DHT22;42965;52.846;6.614;2023-09-18T07:07:19;18.00;99.90
57088;DHT22;42965;52.846;6.614;2023-09-18T07:09:51;18.00;99.90
57088;DHT22;42965;52.846;6.614;2023-09-18T07:12:17;18.10;99.90
57088;DHT22;42965;52.846;6.614;2023-09-18T07:14:47;18.00;99.90
57088;DHT22;42965;52.846;6.614;2023-09-18T07:17:13;18.10;99.90
57088;DHT22;42965;52.846;6.614;2023-09-18T07:19:39;18.10;99.90
57088;DHT22;42965;52.846;6.614;2023-09-18T07:22:06;18.10;99.90
57088;DHT22;42965;52.846;6.614;2023-09-18T07:24:32;18.10;99.90
57088;DHT22;42965;52.846;6.614;2023-09-18T07:26:58;18.10;99.90
57088;DHT22;42965;52.846;6.614;2023-09-18T07:29:25;18.20;99.90
57088;DHT22;42965;52.846;6.614;2023-09-18T07:31:52;18.20;99.90
57088;DHT22;42965;52.846;6.614;2023-09-18T07:34:19;18.20;99.90
57088;DHT22;42965;52.846;6.614;2023-09-18T07:36:45;18.30;99.90
57088;DHT22;42965;52.846;6.614;2023-09-18T07:39:11;18.20;99.90
57088;DHT22;42965;52.846;6.614;2023-09-18T07:41:37;18.40;99.90
57088;DHT22;42965;52.846;6.614;2023-09-18T07:44:04;18.30;99.90
57088;DHT22;42965;52.846;6.614;2023-09-18T07:46:30;18.40;99.90
57088;DHT22;42965;52.846;6.614;2023-09-18T07:48:58;18.40;99.90
57088;DHT22;42965;52.846;6.614;2023-09-18T07:51:27;18.50;99.90
57088;DHT22;42965;52.846;6.614;2023-09-18T07:53:53;18.40;99.90
57088;DHT22;42965;52.846;6.614;2023-09-18T07:56:19;18.30;99.90
57088;DHT22;42965;52.846;6.614;2023-09-18T07:58:46;18.40;99.90
57088;DHT22;42965;52.846;6.614;2023-09-18T08:01:13;18.50;99.90
57088;DHT22;42965;52.846;6.614;2023-09-18T08:04:00;18.40;99.90
57088;DHT22;42965;52.846;6.614;2023-09-18T08:06:26;18.50;99.90
57088;DHT22;42965;52.846;6.614;2023-09-18T08:08:54;18.50;99.90
57088;DHT22;42965;52.846;6.614;2023-09-18T08:11:20;18.50;99.90
57088;DHT22;42965;52.846;6.614;2023-09-18T08:13:46;18.60;99.90
57088;DHT22;42965;52.846;6.614;2023-09-18T08:16:12;18.50;99.90
57088;DHT22;42965;52.846;6.614;2023-09-18T08:18:40;18.50;99.90
57088;DHT22;42965;52.846;6.614;2023-09-18T08:21:07;18.50;99.90
57088;DHT22;42965;52.846;6.614;2023-09-18T08:23:35;18.60;99.90
57088;DHT22;42965;52.846;6.614;2023-09-18T08:26:02;18.60;99.90
57088;DHT22;42965;52.846;6.614;2023-09-18T08:28:30;18.60;99.90
57088;DHT22;42965;52.846;6.614;2023-09-18T08:30:56;18.60;99.90
57088;DHT22;42965;52.846;6.614;2023-09-18T08:33:25;18.60;99.90
57088;DHT22;42965;52.846;6.614;2023-09-18T08:35:52;18.60;99.90
57088;DHT22;42965;52.846;6.614;2023-09-18T08:38:18;18.70;99.90
57088;DHT22;42965;52.846;6.614;2023-09-18T08:40:45;18.70;99.90
57088;DHT22;42965;52.846;6.614;2023-09-18T08:43:14;18.80;99.90
57088;DHT22;42965;52.846;6.614;2023-09-18T08:45:53;18.80;99.90
57088;DHT22;42965;52.846;6.614;2023-09-18T08:48:40;18.90;99.90
57088;DHT22;42965;52.846;6.614;2023-09-18T08:51:07;18.80;99.90
57088;DHT22;42965;52.846;6.614;2023-09-18T08:53:35;18.90;99.90
57088;DHT22;42965;52.846;6.614;2023-09-18T08:56:04;19.00;99.90
57088;DHT22;42965;52.846;6.614;2023-09-18T08:58:36;18.90;99.90
57088;DHT22;42965;52.846;6.614;2023-09-18T09:01:04;19.00;99.90
57088;DHT22;42965;52.846;6.614;2023-09-18T09:03:32;19.00;99.90
57088;DHT22;42965;52.846;6.614;2023-09-18T09:06:00;18.90;99.90
57088;DHT22;42965;52.846;6.614;2023-09-18T09:08:30;19.00;99.90
57088;DHT22;42965;52.846;6.614;2023-09-18T09:10:56;19.00;99.90
57088;DHT22;42965;52.846;6.614;2023-09-18T09:13:24;19.00;99.90
57088;DHT22;42965;52.846;6.614;2023-09-18T09:15:55;19.10;99.90
57088;DHT22;42965;52.846;6.614;2023-09-18T09:18:24;18.90;99.90
57088;DHT22;42965;52.846;6.614;2023-09-18T09:21:03;19.10;99.90
57088;DHT22;42965;52.846;6.614;2023-09-18T09:23:50;19.00;99.90
57088;DHT22;42965;52.846;6.614;2023-09-18T09:26:21;19.10;99.90
57088;DHT22;42965;52.846;6.614;2023-09-18T09:28:51;19.20;99.90
57088;DHT22;42965;52.846;6.614;2023-09-18T09:31:29;19.40;99.90
57088;DHT22;42965;52.846;6.614;2023-09-18T09:33:57;19.40;99.90
57088;DHT22;42965;52.846;6.614;2023-09-18T09:36:24;19.50;99.90
57088;DHT22;42965;52.846;6.614;2023-09-18T09:38:57;19.50;99.90
57088;DHT22;42965;52.846;6.614;2023-09-18T09:41:27;19.70;99.90
57088;DHT22;42965;52.846;6.614;2023-09-18T09:43:53;19.70;99.90
57088;DHT22;42965;52.846;6.614;2023-09-18T09:46:22;19.80;99.90
57088;DHT22;42965;52.846;6.614;2023-09-18T09:49:01;19.80;99.90
57088;DHT22;42965;52.846;6.614;2023-09-18T09:51:31;20.00;99.90
57088;DHT22;42965;52.846;6.614;2023-09-18T09:53:58;20.00;99.90
57088;DHT22;42965;52.846;6.614;2023-09-18T09:56:45;20.10;99.90
57088;DHT22;42965;52.846;6.614;2023-09-18T09:59:13;20.10;99.90
57088;DHT22;42965;52.846;6.614;2023-09-18T10:01:40;20.30;99.90
57088;DHT22;42965;52.846;6.614;2023-09-18T10:04:14;20.60;99.90
57088;DHT22;42965;52.846;6.614;2023-09-18T10:06:45;20.50;99.90
57088;DHT22;42965;52.846;6.614;2023-09-18T10:09:14;20.50;99.90
57088;DHT22;42965;52.846;6.614;2023-09-18T10:11:44;20.40;99.90
57088;DHT22;42965;52.846;6.614;2023-09-18T10:14:18;20.50;99.90
57088;DHT22;42965;52.846;6.614;2023-09-18T10:16:49;20.60;99.90
57088;DHT22;42965;52.846;6.614;2023-09-18T10:22:30;20.70;99.90
57088;DHT22;42965;52.846;6.614;2023-09-18T10:25:08;20.90;99.90
57088;DHT22;42965;52.846;6.614;2023-09-18T10:27:37;21.00;99.90
57088;DHT22;42965;52.846;6.614;2023-09-18T10:30:07;21.00;99.90
57088;DHT22;42965;52.846;6.614;2023-09-18T10:32:40;21.30;99.90
57088;DHT22;42965;52.846;6.614;2023-09-18T10:35:10;21.60;99.90
57088;DHT22;42965;52.846;6.614;2023-09-18T10:37:38;21.60;99.90
57088;DHT22;42965;52.846;6.614;2023-09-18T10:40:28;21.60;99.90
57088;DHT22;42965;52.846;6.614;2023-09-18T10:42:57;22.20;99.90
57088;DHT22;42965;52.846;6.614;2023-09-18T10:45:24;22.80;99.90
57088;DHT22;42965;52.846;6.614;2023-09-18T10:48:11;23.40;99.90
57088;DHT22;42965;52.846;6.614;2023-09-18T10:50:39;23.80;99.90
57088;DHT22;42965;52.846;6.614;2023-09-18T10:53:07;24.40;99.90
57088;DHT22;42965;52.846;6.614;2023-09-18T10:55:44;25.10;99.90
57088;DHT22;42965;52.846;6.614;2023-09-18T10:58:11;25.00;99.90
57088;DHT22;42965;52.846;6.614;2023-09-18T11:03:50;25.20;99.90
57088;DHT22;42965;52.846;6.614;2023-09-18T11:06:16;24.70;99.90
57088;DHT22;42965;52.846;6.614;2023-09-18T11:08:48;23.90;99.90
57088;DHT22;42965;52.846;6.614;2023-09-18T11:11:18;23.70;99.90
57088;DHT22;42965;52.846;6.614;2023-09-18T11:13:48;23.30;99.90
57088;DHT22;42965;52.846;6.614;2023-09-18T11:19:09;23.50;99.90
57088;DHT22;42965;52.846;6.614;2023-09-18T11:21:37;23.30;99.90
57088;DHT22;42965;52.846;6.614;2023-09-18T11:24:05;23.20;99.90
57088;DHT22;42965;52.846;6.614;2023-09-18T11:26:37;23.20;99.90
57088;DHT22;42965;52.846;6.614;2023-09-18T11:29:07;23.20;99.90
57088;DHT22;42965;52.846;6.614;2023-09-18T11:31:49;23.40;99.90
57088;DHT22;42965;52.846;6.614;2023-09-18T11:34:20;24.10;99.90
57088;DHT22;42965;52.846;6.614;2023-09-18T11:36:49;25.30;99.90
57088;DHT22;42965;52.846;6.614;2023-09-18T11:39:39;25.80;99.90
57088;DHT22;42965;52.846;6.614;2023-09-18T11:42:10;24.90;99.90
57088;DHT22;42965;52.846;6.614;2023-09-18T11:44:36;25.70;99.90
57088;DHT22;42965;52.846;6.614;2023-09-18T11:47:24;25.60;99.90
57088;DHT22;42965;52.846;6.614;2023-09-18T11:49:56;25.50;99.90
57088;DHT22;42965;52.846;6.614;2023-09-18T11:52:26;25.40;99.90
57088;DHT22;42965;52.846;6.614;2023-09-18T11:54:53;24.70;99.90
57088;DHT22;42965;52.846;6.614;2023-09-18T11:57:20;24.10;99.90
57088;DHT22;42965;52.846;6.614;2023-09-18T11:59:47;23.60;99.90
57088;DHT22;42965;52.846;6.614;2023-09-18T12:02:14;23.30;99.90
57088;DHT22;42965;52.846;6.614;2023-09-18T12:04:54;22.90;99.90
57088;DHT22;42965;52.846;6.614;2023-09-18T12:07:21;22.40;99.90
57088;DHT22;42965;52.846;6.614;2023-09-18T12:09:47;21.80;99.90
57088;DHT22;42965;52.846;6.614;2023-09-18T12:12:33;21.40;99.90
57088;DHT22;42965;52.846;6.614;2023-09-18T12:15:01;21.30;99.90
57088;DHT22;42965;52.846;6.614;2023-09-18T12:17:27;21.80;99.90
57088;DHT22;42965;52.846;6.614;2023-09-18T12:20:18;22.30;99.90
57088;DHT22;42965;52.846;6.614;2023-09-18T12:22:47;23.30;99.90
57088;DHT22;42965;52.846;6.614;2023-09-18T12:25:15;23.20;99.90
57088;DHT22;42965;52.846;6.614;2023-09-18T12:27:43;22.90;99.90
57088;DHT22;42965;52.846;6.614;2023-09-18T12:30:11;22.50;99.90
57088;DHT22;42965;52.846;6.614;2023-09-18T12:32:38;22.50;99.90
57088;DHT22;42965;52.846;6.614;2023-09-18T12:35:08;22.70;99.90
57088;DHT22;42965;52.846;6.614;2023-09-18T12:37:40;23.70;99.90
57088;DHT22;42965;52.846;6.614;2023-09-18T12:40:20;24.80;99.90
57088;DHT22;42965;52.846;6.614;2023-09-18T12:42:46;25.10;99.90
57088;DHT22;42965;52.846;6.614;2023-09-18T12:45:13;25.80;99.90
57088;DHT22;42965;52.846;6.614;2023-09-18T12:47:40;25.80;99.90
57088;DHT22;42965;52.846;6.614;2023-09-18T12:50:07;26.20;99.90
57088;DHT22;42965;52.846;6.614;2023-09-18T12:52:33;26.50;99.90
57088;DHT22;42965;52.846;6.614;2023-09-18T12:55:00;26.20;99.90
57088;DHT22;42965;52.846;6.614;2023-09-18T12:57:33;25.90;99.90
57088;DHT22;42965;52.846;6.614;2023-09-18T13:00:22;25.50;99.90
57088;DHT22;42965;52.846;6.614;2023-09-18T13:02:49;25.20;99.90
57088;DHT22;42965;52.846;6.614;2023-09-18T13:05:21;24.80;99.90
57088;DHT22;42965;52.846;6.614;2023-09-18T13:07:53;24.50;99.90
57088;DHT22;42965;52.846;6.614;2023-09-18T13:10:20;24.30;99.90
57088;DHT22;42965;52.846;6.614;2023-09-18T13:12:52;24.70;99.90
57088;DHT22;42965;52.846;6.614;2023-09-18T13:15:26;25.50;99.90
57088;DHT22;42965;52.846;6.614;2023-09-18T13:18:09;26.30;99.90
57088;DHT22;42965;52.846;6.614;2023-09-18T13:20:36;26.90;99.90
57088;DHT22;42965;52.846;6.614;2023-09-18T13:23:02;26.70;99.90
57088;DHT22;42965;52.846;6.614;2023-09-18T13:25:35;27.10;99.90
57088;DHT22;42965;52.846;6.614;2023-09-18T13:28:05;27.00;99.90
57088;DHT22;42965;52.846;6.614;2023-09-18T13:30:33;27.20;99.90
57088;DHT22;42965;52.846;6.614;2023-09-18T13:33:10;27.40;99.90
57088;DHT22;42965;52.846;6.614;2023-09-18T13:35:38;27.60;99.90
57088;DHT22;42965;52.846;6.614;2023-09-18T13:38:07;27.60;99.90
57088;DHT22;42965;52.846;6.614;2023-09-18T13:40:38;27.10;99.90
57088;DHT22;42965;52.846;6.614;2023-09-18T13:43:05;27.10;99.90
57088;DHT22;42965;52.846;6.614;2023-09-18T13:45:34;26.90;99.90
57088;DHT22;42965;52.846;6.614;2023-09-18T13:48:02;27.40;99.90
57088;DHT22;42965;52.846;6.614;2023-09-18T13:50:33;28.00;99.90
57088;DHT22;42965;52.846;6.614;2023-09-18T13:53:03;27.20;98.80
57088;DHT22;42965;52.846;6.614;2023-09-18T13:55:34;26.60;98.60
57088;DHT22;42965;52.846;6.614;2023-09-18T13:58:01;26.10;99.70
57088;DHT22;42965;52.846;6.614;2023-09-18T14:00:30;26.50;99.90
57088;DHT22;42965;52.846;6.614;2023-09-18T14:02:57;27.10;99.90
57088;DHT22;42965;52.846;6.614;2023-09-18T14:05:23;27.40;99.60
57088;DHT22;42965;52.846;6.614;2023-09-18T14:07:49;27.50;97.90
57088;DHT22;42965;52.846;6.614;2023-09-18T14:10:16;27.40;98.50
57088;DHT22;42965;52.846;6.614;2023-09-18T14:12:45;27.20;98.60
57088;DHT22;42965;52.846;6.614;2023-09-18T14:15:11;28.20;99.60
57088;DHT22;42965;52.846;6.614;2023-09-18T14:17:38;28.80;97.90
57088;DHT22;42965;52.846;6.614;2023-09-18T14:20:05;29.10;97.10
57088;DHT22;42965;52.846;6.614;2023-09-18T14:22:36;28.80;94.90
57088;DHT22;42965;52.846;6.614;2023-09-18T14:25:02;28.70;93.50
57088;DHT22;42965;52.846;6.614;2023-09-18T14:27:32;28.70;94.90
57088;DHT22;42965;52.846;6.614;2023-09-18T14:30:02;29.20;93.80
57088;DHT22;42965;52.846;6.614;2023-09-18T14:32:33;29.30;93.20
57088;DHT22;42965;52.846;6.614;2023-09-18T14:34:59;29.60;90.30
57088;DHT22;42965;52.846;6.614;2023-09-18T14:37:28;29.00;90.40
57088;DHT22;42965;52.846;6.614;2023-09-18T14:39:56;29.50;89.00
57088;DHT22;42965;52.846;6.614;2023-09-18T14:42:42;29.30;87.20
57088;DHT22;42965;52.846;6.614;2023-09-18T14:45:09;29.20;87.40
57088;DHT22;42965;52.846;6.614;2023-09-18T14:47:36;28.60;85.40
57088;DHT22;42965;52.846;6.614;2023-09-18T14:50:02;28.30;85.60
57088;DHT22;42965;52.846;6.614;2023-09-18T14:52:30;28.60;87.30
57088;DHT22;42965;52.846;6.614;2023-09-18T14:55:00;28.60;87.20
57088;DHT22;42965;52.846;6.614;2023-09-18T14:57:30;28.60;86.60
57088;DHT22;42965;52.846;6.614;2023-09-18T14:59:56;28.60;85.70
57088;DHT22;42965;52.846;6.614;2023-09-18T15:02:22;28.10;84.80
57088;DHT22;42965;52.846;6.614;2023-09-18T15:04:53;28.30;86.20
57088;DHT22;42965;52.846;6.614;2023-09-18T15:07:20;28.20;87.40
57088;DHT22;42965;52.846;6.614;2023-09-18T15:09:46;28.70;87.30
57088;DHT22;42965;52.846;6.614;2023-09-18T15:12:12;28.50;86.40
57088;DHT22;42965;52.846;6.614;2023-09-18T15:14:39;28.20;85.30
57088;DHT22;42965;52.846;6.614;2023-09-18T15:17:05;28.30;86.60
57088;DHT22;42965;52.846;6.614;2023-09-18T15:19:34;27.60;87.40
57088;DHT22;42965;52.846;6.614;2023-09-18T15:22:03;27.00;86.70
57088;DHT22;42965;52.846;6.614;2023-09-18T15:24:33;26.60;90.30
57088;DHT22;42965;52.846;6.614;2023-09-18T15:27:00;26.10;91.80
57088;DHT22;42965;52.846;6.614;2023-09-18T15:29:26;25.50;93.10
57088;DHT22;42965;52.846;6.614;2023-09-18T15:31:55;25.00;94.80
57088;DHT22;42965;52.846;6.614;2023-09-18T15:34:23;24.70;97.20
57088;DHT22;42965;52.846;6.614;2023-09-18T15:36:49;24.50;98.90
57088;DHT22;42965;52.846;6.614;2023-09-18T15:39:21;24.50;99.90
57088;DHT22;42965;52.846;6.614;2023-09-18T15:41:49;24.10;99.90
57088;DHT22;42965;52.846;6.614;2023-09-18T15:44:15;23.90;99.90
57088;DHT22;42965;52.846;6.614;2023-09-18T15:46:41;23.80;99.90
57088;DHT22;42965;52.846;6.614;2023-09-18T15:49:07;23.50;99.90
57088;DHT22;42965;52.846;6.614;2023-09-18T15:51:33;23.30;99.90
57088;DHT22;42965;52.846;6.614;2023-09-18T15:54:00;23.10;99.90